Los Angeles, Argentina
Current Conditions -  °F | °C
As of 8:00 PM on Saturday 20 Dec 2014 (Local Time) from SANT Reporting Station
Broken Clouds Broken Clouds  
Wind Chill: 30°   Ceiling: 3500
Heat Index: 35°   Visibility: 6mi
Dew Point: 24°   Wind: 0mph
Humidity: 70%   Direction: NA
Pressure: 29.35"   Gusts: NA
Location:  28.54°S, 65.95°W
Report Text: SANT 202300Z 00000KT 9000 BKN035 FEW050CBFEW100 30/24 Q0994
Loading
Personal Weather Stations






























Interactive Weather Map New forecast layout! Learn more

10-Day Weather Forecast

Advertisements
Track Severe Weather on mobile